createdAt,value
2023-04-23T00:00:44.465Z,1.42
2023-04-23T00:01:44.410Z,1.42
2023-04-23T00:02:44.585Z,1.44
2023-04-23T00:03:44.665Z,1.44
2023-04-23T00:04:44.867Z,1.44
2023-04-23T00:05:44.470Z,1.43
2023-04-23T00:06:44.510Z,1.43
2023-04-23T00:07:45.617Z,1.44
2023-04-23T00:08:44.626Z,1.45
2023-04-23T00:09:44.658Z,1.44
2023-04-23T00:10:44.710Z,1.44
2023-04-23T00:11:44.771Z,1.42
2023-04-23T00:12:44.817Z,1.43
2023-04-23T00:13:44.894Z,1.42
2023-04-23T00:14:44.907Z,1.44
2023-04-23T00:15:44.968Z,1.44
2023-04-23T00:16:45.129Z,1.43
2023-04-23T00:17:45.134Z,1.42
2023-04-23T00:18:46.081Z,1.43
2023-04-23T00:19:45.145Z,1.43
2023-04-23T00:20:45.219Z,1.42
2023-04-23T00:21:45.272Z,1.41
2023-04-23T00:22:45.304Z,1.41
2023-04-23T00:23:45.540Z,1.41
2023-04-23T00:24:45.727Z,1.43
2023-04-23T00:25:45.616Z,1.41
2023-04-23T00:26:46.126Z,1.42
2023-04-23T00:27:45.467Z,1.40
2023-04-23T00:28:45.509Z,1.40
2023-04-23T00:29:45.583Z,1.39
2023-04-23T00:30:45.584Z,1.42
2023-04-23T00:31:45.650Z,1.39
2023-04-23T00:32:45.673Z,1.43
2023-04-23T00:33:45.715Z,1.42
2023-04-23T00:34:45.787Z,1.39
2023-04-23T00:35:45.784Z,1.41
2023-04-23T00:36:45.868Z,1.39
2023-04-23T00:37:45.890Z,1.38
2023-04-23T00:38:45.959Z,1.39
2023-04-23T00:39:46.006Z,1.38
2023-04-23T00:40:46.057Z,1.39
2023-04-23T00:41:46.103Z,1.37
2023-04-23T00:42:46.189Z,1.36
2023-04-23T00:43:46.221Z,1.41
2023-04-23T00:44:46.246Z,1.39
2023-04-23T00:45:46.276Z,1.40
2023-04-23T00:46:46.361Z,1.39
2023-04-23T00:47:46.451Z,1.38
2023-04-23T00:48:46.434Z,1.38
2023-04-23T00:49:46.481Z,1.36
2023-04-23T00:50:46.547Z,1.36
2023-04-23T00:51:46.592Z,1.36
2023-04-23T00:52:46.661Z,1.38
2023-04-23T00:53:46.682Z,1.37
2023-04-23T00:54:46.715Z,1.35
2023-04-23T00:55:46.793Z,1.35
2023-04-23T00:56:46.825Z,1.37
2023-04-23T00:57:47.146Z,1.35
2023-04-23T00:58:46.897Z,1.35
2023-04-23T00:59:46.862Z,1.35
2023-04-23T01:00:46.893Z,1.36
2023-04-23T01:01:46.836Z,1.36
2023-04-23T01:02:46.922Z,1.37
2023-04-23T01:03:46.971Z,1.37
2023-04-23T01:04:46.819Z,1.38
2023-04-23T01:05:46.833Z,1.36
2023-04-23T01:06:46.834Z,1.36
2023-04-23T01:07:46.811Z,1.37
2023-04-23T01:08:46.816Z,1.38
2023-04-23T01:09:46.808Z,1.35
2023-04-23T01:10:46.826Z,1.36
2023-04-23T01:11:46.878Z,1.35
2023-04-23T01:12:46.935Z,1.37
2023-04-23T01:13:46.960Z,1.37
2023-04-23T01:14:47.020Z,1.35
2023-04-23T01:15:47.066Z,1.36
2023-04-23T01:16:47.164Z,1.34
2023-04-23T01:17:47.235Z,1.36
2023-04-23T01:18:47.212Z,1.35
2023-04-23T01:19:47.248Z,1.35
2023-04-23T01:20:47.313Z,1.35
2023-04-23T01:21:47.344Z,1.33
2023-04-23T01:22:47.430Z,1.37
2023-04-23T01:23:47.439Z,1.34
2023-04-23T01:24:47.489Z,1.32
2023-04-23T01:25:47.556Z,1.33
2023-04-23T01:26:47.620Z,1.35
2023-04-23T01:27:47.667Z,1.34
2023-04-23T01:28:47.670Z,1.34
2023-04-23T01:29:47.741Z,1.35
2023-04-23T01:30:48.639Z,1.33
2023-04-23T01:31:47.833Z,1.34
2023-04-23T01:32:47.884Z,1.34
2023-04-23T01:33:47.911Z,1.32
2023-04-23T01:34:47.993Z,1.31
2023-04-23T01:35:48.008Z,1.33
2023-04-23T01:36:48.050Z,1.32
2023-04-23T01:37:48.115Z,1.31
2023-04-23T01:38:49.130Z,1.30
2023-04-23T01:39:48.216Z,1.33
2023-04-23T01:40:48.262Z,1.32
2023-04-23T01:41:48.304Z,1.33
2023-04-23T01:42:48.338Z,1.32
2023-04-23T01:43:48.395Z,1.30
2023-04-23T01:44:48.463Z,1.32
2023-04-23T01:45:48.498Z,1.31
2023-04-23T01:46:49.159Z,1.34
2023-04-23T01:47:50.222Z,1.29
2023-04-23T01:48:48.625Z,1.30
2023-04-23T01:49:48.651Z,1.33
2023-04-23T01:50:48.681Z,1.30
2023-04-23T01:51:48.753Z,1.31
2023-04-23T01:52:48.829Z,1.30
2023-04-23T01:53:48.820Z,1.28
2023-04-23T01:54:50.690Z,1.30
2023-04-23T01:55:48.923Z,1.31
2023-04-23T01:56:48.966Z,1.30
2023-04-23T01:57:49.011Z,1.31
2023-04-23T01:58:49.064Z,1.29
2023-04-23T01:59:49.106Z,1.32
2023-04-23T02:00:53.653Z,1.30
2023-04-23T02:01:49.181Z,1.31
2023-04-23T02:02:49.317Z,1.31
2023-04-23T02:03:49.209Z,1.30
2023-04-23T02:04:49.149Z,1.30
2023-04-23T02:05:49.144Z,1.31
2023-04-23T02:06:49.694Z,1.33
2023-04-23T02:07:49.097Z,1.32
2023-04-23T02:08:49.090Z,1.29
2023-04-23T02:09:49.084Z,1.30
2023-04-23T02:10:49.083Z,1.30
2023-04-23T02:11:49.052Z,1.31
2023-04-23T02:12:49.101Z,1.30
2023-04-23T02:13:49.088Z,1.29
2023-04-23T02:14:49.071Z,1.29
2023-04-23T02:15:49.087Z,1.31
2023-04-23T02:16:49.664Z,1.28
2023-04-23T02:17:49.056Z,1.29
2023-04-23T02:18:49.047Z,1.28
2023-04-23T02:19:49.663Z,1.29
2023-04-23T02:20:49.062Z,1.31
2023-04-23T02:21:52.202Z,1.28
2023-04-23T02:22:49.136Z,1.29
2023-04-23T02:23:49.104Z,1.29
2023-04-23T02:24:49.264Z,1.31
2023-04-23T02:25:49.095Z,1.27
2023-04-23T02:26:49.101Z,1.29
2023-04-23T02:27:49.119Z,1.28
2023-04-23T02:28:49.065Z,1.29
2023-04-23T02:29:49.059Z,1.31
2023-04-23T02:30:50.694Z,1.26
2023-04-23T02:31:49.088Z,1.28
2023-04-23T02:32:49.063Z,1.28
2023-04-23T02:33:49.652Z,1.27
2023-04-23T02:34:49.034Z,1.26
2023-04-23T02:35:49.039Z,1.29
2023-04-23T02:36:49.036Z,1.27
2023-04-23T02:37:48.986Z,1.29
2023-04-23T02:38:48.994Z,1.27
2023-04-23T02:39:48.979Z,1.26
2023-04-23T02:40:49.009Z,1.27
2023-04-23T02:41:48.999Z,1.27
2023-04-23T02:42:48.979Z,1.28
2023-04-23T02:43:48.982Z,1.27
2023-04-23T02:44:48.939Z,1.27
2023-04-23T02:45:48.955Z,1.25
2023-04-23T02:46:49.020Z,1.24
2023-04-23T02:47:49.042Z,1.26
2023-04-23T02:48:49.081Z,1.27
2023-04-23T02:49:49.119Z,1.25
2023-04-23T02:50:49.176Z,1.26
2023-04-23T02:51:49.224Z,1.26
2023-04-23T02:52:49.272Z,1.26
2023-04-23T02:53:49.292Z,1.27
2023-04-23T02:54:49.356Z,1.28
2023-04-23T02:55:49.408Z,1.28
2023-04-23T02:56:49.439Z,1.27
2023-04-23T02:57:49.526Z,1.24
2023-04-23T02:58:49.563Z,1.29
2023-04-23T02:59:49.601Z,1.25
2023-04-23T03:00:49.682Z,1.27
2023-04-23T03:01:49.707Z,1.25
2023-04-23T03:02:49.903Z,1.25
2023-04-23T03:03:50.067Z,1.23
2023-04-23T03:04:49.848Z,1.24
2023-04-23T03:05:49.899Z,1.23
2023-04-23T03:06:49.905Z,1.24
2023-04-23T03:07:50.007Z,1.26
2023-04-23T03:08:50.033Z,1.25
2023-04-23T03:09:50.084Z,1.26
2023-04-23T03:10:50.098Z,1.23
2023-04-23T03:11:50.185Z,1.23
2023-04-23T03:12:50.208Z,1.26
2023-04-23T03:13:50.235Z,1.24
2023-04-23T03:14:50.268Z,1.25
2023-04-23T03:15:50.350Z,1.24
2023-04-23T03:16:50.426Z,1.26
2023-04-23T03:17:50.440Z,1.24
2023-04-23T03:18:50.460Z,1.26
2023-04-23T03:19:50.531Z,1.22
2023-04-23T03:20:50.558Z,1.24
2023-04-23T03:21:50.605Z,1.25
2023-04-23T03:22:50.686Z,1.25
2023-04-23T03:23:50.697Z,1.26
2023-04-23T03:24:50.711Z,1.25
2023-04-23T03:25:50.753Z,1.27
2023-04-23T03:26:50.830Z,1.23
2023-04-23T03:27:50.849Z,1.26
2023-04-23T03:28:50.895Z,1.24
2023-04-23T03:29:50.935Z,1.25
2023-04-23T03:30:50.995Z,1.24
2023-04-23T03:31:50.999Z,1.24
2023-04-23T03:32:51.099Z,1.24
2023-04-23T03:33:51.098Z,1.24
2023-04-23T03:34:51.147Z,1.27
2023-04-23T03:35:51.198Z,1.24
2023-04-23T03:36:51.273Z,1.24
2023-04-23T03:37:51.301Z,1.26
2023-04-23T03:38:51.350Z,1.26
2023-04-23T03:39:51.401Z,1.24
2023-04-23T03:40:51.444Z,1.25
2023-04-23T03:41:51.464Z,1.23
2023-04-23T03:42:51.528Z,1.24
2023-04-23T03:43:51.575Z,1.24
2023-04-23T03:44:51.648Z,1.25
2023-04-23T03:45:51.668Z,1.25
2023-04-23T03:46:51.658Z,1.25
2023-04-23T03:47:51.738Z,1.23
2023-04-23T03:48:51.743Z,1.24
2023-04-23T03:49:51.800Z,1.25
2023-04-23T03:50:51.839Z,1.24
2023-04-23T03:51:51.860Z,1.25
2023-04-23T03:52:51.964Z,1.23
2023-04-23T03:53:51.957Z,1.24
2023-04-23T03:54:51.992Z,1.25
2023-04-23T03:55:52.039Z,1.25
2023-04-23T03:56:52.073Z,1.24
2023-04-23T03:57:52.115Z,1.23
2023-04-23T03:58:52.156Z,1.24
2023-04-23T03:59:52.209Z,1.23
2023-04-23T04:00:52.236Z,1.25
2023-04-23T04:01:52.298Z,1.24
2023-04-23T04:02:52.488Z,1.24
2023-04-23T04:03:52.717Z,1.24
2023-04-23T04:04:52.733Z,1.22
2023-04-23T04:05:52.515Z,1.24
2023-04-23T04:06:52.531Z,1.23
2023-04-23T04:07:52.547Z,1.24
2023-04-23T04:08:52.585Z,1.24
2023-04-23T04:09:52.672Z,1.24
2023-04-23T04:10:52.706Z,1.23
2023-04-23T04:11:53.424Z,1.22
2023-04-23T04:12:53.210Z,1.22
2023-04-23T04:13:52.808Z,1.23
2023-04-23T04:14:52.849Z,1.22
2023-04-23T04:15:52.954Z,1.23
2023-04-23T04:16:52.934Z,1.21
2023-04-23T04:17:53.013Z,1.22
2023-04-23T04:18:55.758Z,1.22
2023-04-23T04:19:53.005Z,1.24
2023-04-23T04:20:53.007Z,1.25
2023-04-23T04:21:53.029Z,1.23
2023-04-23T04:22:53.000Z,1.22
2023-04-23T04:23:52.964Z,1.23
2023-04-23T04:24:52.985Z,1.22
2023-04-23T04:25:52.982Z,1.21
2023-04-23T04:26:53.028Z,1.23
2023-04-23T04:27:52.934Z,1.23
2023-04-23T04:28:52.949Z,1.24
2023-04-23T04:29:52.953Z,1.24
2023-04-23T04:30:52.925Z,1.24
2023-04-23T04:31:53.144Z,1.24
2023-04-23T04:32:52.953Z,1.24
2023-04-23T04:33:52.909Z,1.23
2023-04-23T04:34:52.916Z,1.22
2023-04-23T04:35:52.956Z,1.20
2023-04-23T04:36:52.870Z,1.22
2023-04-23T04:37:52.881Z,1.23
2023-04-23T04:38:52.864Z,1.21
2023-04-23T04:39:52.850Z,1.23
2023-04-23T04:40:52.871Z,1.23
2023-04-23T04:41:52.820Z,1.24
2023-04-23T04:42:52.832Z,1.21
2023-04-23T04:43:52.830Z,1.20
2023-04-23T04:44:52.799Z,1.21
2023-04-23T04:45:52.828Z,1.22
2023-04-23T04:46:52.854Z,1.20
2023-04-23T04:47:52.903Z,1.22
2023-04-23T04:48:52.821Z,1.23
2023-04-23T04:49:52.809Z,1.24
2023-04-23T04:50:52.800Z,1.23
2023-04-23T04:51:52.788Z,1.23
2023-04-23T04:52:52.755Z,1.20
2023-04-23T04:53:52.785Z,1.22
2023-04-23T04:54:52.782Z,1.23
2023-04-23T04:55:52.749Z,1.21
2023-04-23T04:56:52.762Z,1.24
2023-04-23T04:57:52.766Z,1.21
2023-04-23T04:58:52.730Z,1.20
2023-04-23T04:59:52.724Z,1.21
2023-04-23T05:00:52.755Z,1.22
2023-04-23T05:01:52.793Z,1.21
2023-04-23T05:02:53.102Z,1.23
2023-04-23T05:03:53.010Z,1.23
2023-04-23T05:04:52.885Z,1.22
2023-04-23T05:05:52.927Z,1.20
2023-04-23T05:06:52.980Z,1.21
2023-04-23T05:07:53.041Z,1.23
2023-04-23T05:08:53.090Z,1.22
2023-04-23T05:09:53.111Z,1.22
2023-04-23T05:10:53.168Z,1.22
2023-04-23T05:11:53.199Z,1.23
2023-04-23T05:12:53.253Z,1.21
2023-04-23T05:13:53.282Z,1.22
2023-04-23T05:14:54.327Z,1.21
2023-04-23T05:15:53.358Z,1.23
2023-04-23T05:16:53.496Z,1.22
2023-04-23T05:17:53.604Z,1.21
2023-04-23T05:18:53.537Z,1.22
2023-04-23T05:19:53.552Z,1.22
2023-04-23T05:20:53.601Z,1.22
2023-04-23T05:21:53.619Z,1.23
2023-04-23T05:22:53.653Z,1.22
2023-04-23T05:23:53.688Z,1.21
2023-04-23T05:24:53.705Z,1.21
2023-04-23T05:25:54.406Z,1.23
2023-04-23T05:26:53.801Z,1.22
2023-04-23T05:27:53.892Z,1.24
2023-04-23T05:28:53.878Z,1.22
2023-04-23T05:29:53.901Z,1.24
2023-04-23T05:30:53.961Z,1.23
2023-04-23T05:31:54.012Z,1.23
2023-04-23T05:32:54.082Z,1.24
2023-04-23T05:33:54.097Z,1.22
2023-04-23T05:34:54.163Z,1.24
2023-04-23T05:35:54.168Z,1.22
2023-04-23T05:36:54.177Z,1.21
2023-04-23T05:37:54.207Z,1.22
2023-04-23T05:38:54.253Z,1.22
2023-04-23T05:39:54.289Z,1.23
2023-04-23T05:40:54.365Z,1.21
2023-04-23T05:41:54.399Z,1.19
2023-04-23T05:42:54.437Z,1.22
2023-04-23T05:43:54.471Z,1.21
2023-04-23T05:44:54.535Z,1.20
2023-04-23T05:45:54.586Z,1.22
2023-04-23T05:46:54.599Z,1.20
2023-04-23T05:47:54.777Z,1.21
2023-04-23T05:48:54.692Z,1.23
2023-04-23T05:49:54.734Z,1.22
2023-04-23T05:50:54.740Z,1.23
2023-04-23T05:51:54.813Z,1.22
2023-04-23T05:52:54.852Z,1.21
2023-04-23T05:53:54.887Z,1.21
2023-04-23T05:54:54.941Z,1.21
2023-04-23T05:55:54.984Z,1.22
2023-04-23T05:56:55.011Z,1.21
2023-04-23T05:57:55.067Z,1.21
2023-04-23T05:58:55.104Z,1.22
2023-04-23T05:59:55.144Z,1.23
2023-04-23T06:00:55.185Z,1.19
2023-04-23T06:01:55.253Z,1.21
2023-04-23T06:02:55.555Z,1.20
2023-04-23T06:03:55.521Z,1.22
2023-04-23T06:04:55.613Z,1.21
2023-04-23T06:05:55.524Z,1.23
2023-04-23T06:06:55.435Z,1.22
2023-04-23T06:07:55.492Z,1.21
2023-04-23T06:08:55.533Z,1.22
2023-04-23T06:09:55.578Z,1.22
2023-04-23T06:10:55.658Z,1.22
2023-04-23T06:11:55.675Z,1.21
2023-04-23T06:12:55.877Z,1.21
2023-04-23T06:13:55.792Z,1.22
2023-04-23T06:14:55.794Z,1.23
2023-04-23T06:15:55.885Z,1.20
2023-04-23T06:16:55.905Z,1.20
2023-04-23T06:17:56.093Z,1.23
2023-04-23T06:18:55.989Z,1.19
2023-04-23T06:19:56.047Z,1.21
2023-04-23T06:20:56.063Z,1.22
2023-04-23T06:21:56.144Z,1.22
2023-04-23T06:22:56.160Z,1.22
2023-04-23T06:23:56.197Z,1.22
2023-04-23T06:24:56.236Z,1.20
2023-04-23T06:25:56.267Z,1.20
2023-04-23T06:26:56.301Z,1.21
2023-04-23T06:27:56.365Z,1.21
2023-04-23T06:28:56.398Z,1.22
2023-04-23T06:29:56.421Z,1.22
2023-04-23T06:30:56.469Z,1.21
2023-04-23T06:31:56.508Z,1.22
2023-04-23T06:32:56.690Z,1.21
2023-04-23T06:33:56.589Z,1.20
2023-04-23T06:35:01.635Z,1.20
2023-04-23T06:35:57.598Z,1.20
2023-04-23T06:36:56.611Z,1.21
2023-04-23T06:37:56.590Z,1.21
2023-04-23T06:38:56.594Z,1.22
2023-04-23T06:39:56.658Z,1.20
2023-04-23T06:40:56.573Z,1.24
2023-04-23T06:41:56.572Z,1.21
2023-04-23T06:42:56.544Z,1.22
2023-04-23T06:43:56.555Z,1.24
2023-04-23T06:44:56.587Z,1.22
2023-04-23T06:45:56.529Z,1.23
2023-04-23T06:46:56.544Z,1.23
2023-04-23T06:47:56.537Z,1.22
2023-04-23T06:48:56.522Z,1.19
2023-04-23T06:49:56.554Z,1.21
2023-04-23T06:50:56.574Z,1.23
2023-04-23T06:51:57.770Z,1.21
2023-04-23T06:52:56.662Z,1.22
2023-04-23T06:53:56.729Z,1.22
2023-04-23T06:54:56.734Z,1.23
2023-04-23T06:55:56.784Z,1.23
2023-04-23T06:56:56.814Z,1.21
2023-04-23T06:57:56.819Z,1.20
2023-04-23T06:58:56.903Z,1.22
2023-04-23T06:59:56.931Z,1.23
2023-04-23T07:00:57.019Z,1.20
2023-04-23T07:01:57.029Z,1.21
2023-04-23T07:02:57.087Z,1.24
2023-04-23T07:03:57.207Z,1.20
2023-04-23T07:04:57.113Z,1.24
2023-04-23T07:05:57.163Z,1.25
2023-04-23T07:06:57.191Z,1.21
2023-04-23T07:07:57.243Z,1.23
2023-04-23T07:08:57.295Z,1.21
2023-04-23T07:09:57.357Z,1.20
2023-04-23T07:10:57.368Z,1.22
2023-04-23T07:11:57.385Z,1.21
2023-04-23T07:12:57.431Z,1.22
2023-04-23T07:13:57.466Z,1.22
2023-04-23T07:14:57.569Z,1.23
2023-04-23T07:15:57.547Z,1.22
2023-04-23T07:16:57.604Z,1.21
2023-04-23T07:17:57.689Z,1.21
2023-04-23T07:18:57.649Z,1.23
2023-04-23T07:19:57.689Z,1.20
2023-04-23T07:20:57.736Z,1.22
2023-04-23T07:21:57.759Z,1.22
2023-04-23T07:22:57.801Z,1.21
2023-04-23T07:23:57.860Z,1.21
2023-04-23T07:24:57.898Z,1.23
2023-04-23T07:25:57.898Z,1.22
2023-04-23T07:26:57.958Z,1.21
2023-04-23T07:27:57.981Z,1.24
2023-04-23T07:28:58.038Z,1.23
2023-04-23T07:29:58.057Z,1.23
2023-04-23T07:30:58.090Z,1.24
2023-04-23T07:31:58.163Z,1.24
2023-04-23T07:32:58.233Z,1.23
2023-04-23T07:33:58.199Z,1.22
2023-04-23T07:34:58.259Z,1.23
2023-04-23T07:35:58.270Z,1.22
2023-04-23T07:36:58.298Z,1.24
2023-04-23T07:37:58.335Z,1.24
2023-04-23T07:38:58.368Z,1.23
2023-04-23T07:39:58.417Z,1.25
2023-04-23T07:40:58.446Z,1.24
2023-04-23T07:41:58.459Z,1.22
2023-04-23T07:42:58.506Z,1.23
2023-04-23T07:43:58.578Z,1.21
2023-04-23T07:44:58.596Z,1.23
2023-04-23T07:45:58.634Z,1.24
2023-04-23T07:46:58.662Z,1.24
2023-04-23T07:47:58.703Z,1.22
2023-04-23T07:48:58.753Z,1.22
2023-04-23T07:49:58.777Z,1.20
2023-04-23T07:50:58.801Z,1.21
2023-04-23T07:51:58.814Z,1.22
2023-04-23T07:52:58.888Z,1.24
2023-04-23T07:53:58.900Z,1.21
2023-04-23T07:54:58.934Z,1.23
2023-04-23T07:55:58.974Z,1.25
2023-04-23T07:56:59.016Z,1.22
2023-04-23T07:57:59.043Z,1.22
2023-04-23T07:58:59.039Z,1.24
2023-04-23T07:59:59.075Z,1.22
2023-04-23T08:00:59.103Z,1.21
2023-04-23T08:01:59.116Z,1.24
2023-04-23T08:02:59.329Z,1.22
2023-04-23T08:03:59.713Z,1.21
2023-04-23T08:04:59.382Z,1.22
2023-04-23T08:05:59.272Z,1.23
2023-04-23T08:06:59.284Z,1.22
2023-04-23T08:07:59.324Z,1.22
2023-04-23T08:08:59.350Z,1.24
2023-04-23T08:09:59.392Z,1.23
2023-04-23T08:10:59.411Z,1.23
2023-04-23T08:11:59.456Z,1.22
2023-04-23T08:12:59.494Z,1.21
2023-04-23T08:13:59.495Z,1.23
2023-04-23T08:14:59.542Z,1.20
2023-04-23T08:15:59.628Z,1.22
2023-04-23T08:16:59.621Z,1.24
2023-04-23T08:17:59.681Z,1.23
2023-04-23T08:19:59.644Z,1.23
2023-04-23T08:20:59.661Z,1.23
2023-04-23T08:21:59.652Z,1.23
2023-04-23T08:22:59.705Z,1.24
2023-04-23T08:23:59.648Z,1.24
2023-04-23T08:24:59.638Z,1.24
2023-04-23T08:25:59.581Z,1.22
2023-04-23T08:26:59.603Z,1.22
2023-04-23T08:27:59.585Z,1.23
2023-04-23T08:28:59.580Z,1.21
2023-04-23T08:29:59.572Z,1.19
2023-04-23T08:30:59.602Z,1.22
2023-04-23T08:31:59.565Z,1.24
2023-04-23T08:32:59.688Z,1.21
2023-04-23T08:33:59.560Z,1.20
2023-04-23T08:34:59.540Z,1.23
2023-04-23T08:35:59.553Z,1.22
2023-04-23T08:36:59.573Z,1.23
2023-04-23T08:37:59.535Z,1.24
2023-04-23T08:38:59.529Z,1.24
2023-04-23T08:39:59.491Z,1.21
2023-04-23T08:40:59.545Z,1.22
2023-04-23T08:41:59.477Z,1.21
2023-04-23T08:42:59.504Z,1.20
2023-04-23T08:43:59.499Z,1.23
2023-04-23T08:44:59.477Z,1.21
2023-04-23T08:45:59.478Z,1.20
2023-04-23T08:46:59.599Z,1.22
2023-04-23T08:48:01.603Z,1.23
2023-04-23T08:48:59.444Z,1.24
2023-04-23T08:49:59.444Z,1.24
2023-04-23T08:50:59.443Z,1.23
2023-04-23T08:51:59.412Z,1.24
2023-04-23T08:52:59.430Z,1.21
2023-04-23T08:53:59.399Z,1.23
2023-04-23T08:54:59.434Z,1.22
2023-04-23T08:55:59.459Z,1.23
2023-04-23T08:56:59.371Z,1.25
2023-04-23T08:57:59.382Z,1.25
2023-04-23T08:58:59.369Z,1.24
2023-04-23T08:59:59.360Z,1.24
2023-04-23T09:00:59.358Z,1.21
2023-04-23T09:01:59.358Z,1.22
2023-04-23T09:02:59.522Z,1.21
2023-04-23T09:03:59.394Z,1.21
2023-04-23T09:04:59.333Z,1.25
2023-04-23T09:05:59.297Z,1.24
2023-04-23T09:06:59.312Z,1.21
2023-04-23T09:07:59.295Z,1.24
2023-04-23T09:08:59.335Z,1.22
2023-04-23T09:09:59.284Z,1.22
2023-04-23T09:10:59.347Z,1.22
2023-04-23T09:11:59.270Z,1.21
2023-04-23T09:12:59.265Z,1.23
2023-04-23T09:13:59.291Z,1.22
2023-04-23T09:14:59.262Z,1.21
2023-04-23T09:15:59.273Z,1.20
2023-04-23T09:16:59.265Z,1.22
2023-04-23T09:17:59.438Z,1.22
2023-04-23T09:18:59.773Z,1.21
2023-04-23T09:19:59.320Z,1.20
2023-04-23T09:20:59.243Z,1.21
2023-04-23T09:21:59.206Z,1.22
2023-04-23T09:22:59.213Z,1.21
2023-04-23T09:23:59.195Z,1.21
2023-04-23T09:24:59.183Z,1.23
2023-04-23T09:25:59.171Z,1.24
2023-04-23T09:26:59.210Z,1.20
2023-04-23T09:27:59.221Z,1.22
2023-04-23T09:28:59.169Z,1.22
2023-04-23T09:29:59.161Z,1.22
2023-04-23T09:30:59.178Z,1.21
2023-04-23T09:31:59.212Z,1.23
2023-04-23T09:32:59.193Z,1.22
2023-04-23T09:33:59.153Z,1.24
2023-04-23T09:34:59.095Z,1.23
2023-04-23T09:35:59.117Z,1.24
2023-04-23T09:36:59.111Z,1.21
2023-04-23T09:37:59.084Z,1.23
2023-04-23T09:38:59.100Z,1.23
2023-04-23T09:39:59.077Z,1.22
2023-04-23T09:40:59.081Z,1.20
2023-04-23T09:41:59.076Z,1.23
2023-04-23T09:42:59.095Z,1.23
2023-04-23T09:43:59.062Z,1.23
2023-04-23T09:44:59.036Z,1.23
2023-04-23T09:45:59.087Z,1.22
2023-04-23T09:46:59.043Z,1.23
2023-04-23T09:47:59.062Z,1.23
2023-04-23T09:48:59.020Z,1.22
2023-04-23T09:49:59.027Z,1.22
2023-04-23T09:50:59.053Z,1.19
2023-04-23T09:51:59.115Z,1.22
2023-04-23T09:52:59.176Z,1.24
2023-04-23T09:53:59.192Z,1.25
2023-04-23T09:54:59.311Z,1.22
2023-04-23T09:55:59.249Z,1.21
2023-04-23T09:56:59.308Z,1.21
2023-04-23T09:57:59.328Z,1.23
2023-04-23T09:58:59.373Z,1.23
2023-04-23T10:00:07.334Z,1.23
2023-04-23T10:01:00.432Z,1.23
2023-04-23T10:01:59.434Z,1.24
2023-04-23T10:02:59.741Z,1.23
2023-04-23T10:03:59.592Z,1.25
2023-04-23T10:05:14.226Z,1.25
2023-04-23T10:06:02.191Z,1.23
2023-04-23T10:07:17.414Z,1.24
2023-04-23T10:08:00.403Z,1.24
2023-04-23T10:08:59.360Z,1.24
2023-04-23T10:09:59.341Z,1.25
2023-04-23T10:11:13.665Z,1.24
2023-04-23T10:12:00.368Z,1.24
2023-04-23T10:12:59.300Z,1.24
2023-04-23T10:13:59.383Z,1.25
2023-04-23T10:14:59.329Z,1.24
2023-04-23T10:16:10.264Z,1.25
2023-04-23T10:17:00.324Z,1.24
2023-04-23T10:17:59.316Z,1.24
2023-04-23T10:18:59.275Z,1.24
2023-04-23T10:19:59.276Z,1.22
2023-04-23T10:20:59.316Z,1.23
2023-04-23T10:22:05.402Z,1.25
2023-04-23T10:23:00.266Z,1.26
2023-04-23T10:23:59.240Z,1.26
2023-04-23T10:24:59.233Z,1.26
2023-04-23T10:25:59.229Z,1.26
2023-04-23T10:26:59.807Z,1.24
2023-04-23T10:27:59.436Z,1.25
2023-04-23T10:28:59.472Z,1.25
2023-04-23T10:29:59.512Z,1.23
2023-04-23T10:30:59.567Z,1.24
2023-04-23T10:31:59.594Z,1.23
2023-04-23T10:32:59.654Z,1.24
2023-04-23T10:33:59.906Z,1.24
2023-04-23T10:34:59.718Z,1.25
2023-04-23T10:35:59.739Z,1.25
2023-04-23T10:36:59.761Z,1.24
2023-04-23T10:37:59.791Z,1.23
2023-04-23T10:39:00.701Z,1.23
2023-04-23T10:39:59.855Z,1.22
2023-04-23T10:40:59.924Z,1.24
2023-04-23T10:41:59.943Z,1.25
2023-04-23T10:42:59.990Z,1.23
2023-04-23T10:44:00.058Z,1.25
2023-04-23T10:45:07.152Z,1.25
2023-04-23T10:46:01.060Z,1.25
2023-04-23T10:47:00.113Z,1.25
2023-04-23T10:48:00.184Z,1.25
2023-04-23T10:49:00.025Z,1.26
2023-04-23T10:50:00.064Z,1.26
2023-04-23T10:51:17.480Z,1.25
2023-04-23T10:52:59.994Z,1.25
2023-04-23T10:54:00.007Z,1.26
2023-04-23T10:55:00.251Z,1.26
2023-04-23T10:56:00.011Z,1.25
2023-04-23T10:56:59.999Z,1.25
2023-04-23T10:58:01.540Z,1.25
2023-04-23T10:59:00.122Z,1.29
2023-04-23T11:00:00.181Z,1.27
2023-04-23T11:01:00.207Z,1.27
2023-04-23T11:02:00.321Z,1.28
2023-04-23T11:03:00.404Z,1.24
2023-04-23T11:04:00.467Z,1.27
2023-04-23T11:05:00.393Z,1.27
2023-04-23T11:06:00.423Z,1.23
2023-04-23T11:07:00.483Z,1.26
2023-04-23T11:08:10.955Z,1.23
2023-04-23T11:09:01.486Z,1.23
2023-04-23T11:10:00.522Z,1.23
2023-04-23T11:11:00.492Z,1.24
2023-04-23T11:12:00.538Z,1.23
2023-04-23T11:13:00.479Z,1.24
2023-04-23T11:14:00.891Z,1.26
2023-04-23T11:15:00.531Z,1.25
2023-04-23T11:16:00.480Z,1.23
2023-04-23T11:17:00.462Z,1.27
2023-04-23T11:18:00.472Z,1.25
2023-04-23T11:19:00.453Z,1.26
2023-04-23T11:20:00.474Z,1.26
2023-04-23T11:21:00.537Z,1.24
2023-04-23T11:22:00.576Z,1.25
2023-04-23T11:23:00.607Z,1.27
2023-04-23T11:24:00.671Z,1.25
2023-04-23T11:25:00.773Z,1.26
2023-04-23T11:26:00.742Z,1.27
2023-04-23T11:27:00.805Z,1.25
2023-04-23T11:28:00.842Z,1.26
2023-04-23T11:29:00.894Z,1.26
2023-04-23T11:30:00.974Z,1.24
2023-04-23T11:31:00.981Z,1.25
2023-04-23T11:32:02.999Z,1.27
2023-04-23T11:33:01.127Z,1.27
2023-04-23T11:34:01.056Z,1.26
2023-04-23T11:35:00.987Z,1.27
2023-04-23T11:36:01.000Z,1.25
2023-04-23T11:37:00.971Z,1.23
2023-04-23T11:38:00.996Z,1.24
2023-04-23T11:39:00.981Z,1.25
2023-04-23T11:40:00.963Z,1.26
2023-04-23T11:41:00.943Z,1.25
2023-04-23T11:42:00.968Z,1.26
2023-04-23T11:43:00.984Z,1.26
2023-04-23T11:44:00.942Z,1.26
2023-04-23T11:45:00.971Z,1.26
2023-04-23T11:46:00.968Z,1.24
2023-04-23T11:47:00.949Z,1.25
2023-04-23T11:48:01.102Z,1.25
2023-04-23T11:49:00.910Z,1.24
2023-04-23T11:50:00.927Z,1.25
2023-04-23T11:51:00.913Z,1.28
2023-04-23T11:52:00.903Z,1.25
2023-04-23T11:53:00.869Z,1.28
2023-04-23T11:54:00.877Z,1.26
2023-04-23T11:55:00.893Z,1.28
2023-04-23T11:56:00.851Z,1.29
2023-04-23T11:57:00.891Z,1.27
2023-04-23T11:58:00.906Z,1.25
2023-04-23T11:59:00.849Z,1.24
2023-04-23T12:00:00.818Z,1.26
2023-04-23T12:01:00.897Z,1.27
2023-04-23T12:02:00.890Z,1.27
2023-04-23T12:03:01.127Z,1.27
2023-04-23T12:04:00.977Z,1.29
2023-04-23T12:05:00.794Z,1.26
2023-04-23T12:06:00.796Z,1.26
2023-04-23T12:07:00.862Z,1.25
2023-04-23T12:08:00.824Z,1.24
2023-04-23T12:09:00.805Z,1.25
2023-04-23T12:10:00.795Z,1.26
2023-04-23T12:11:00.770Z,1.26
2023-04-23T12:12:00.775Z,1.27
2023-04-23T12:13:00.818Z,1.26
2023-04-23T12:14:00.898Z,1.25
2023-04-23T12:15:00.932Z,1.27
2023-04-23T12:16:01.028Z,1.24
2023-04-23T12:17:01.054Z,1.24
2023-04-23T12:18:01.105Z,1.27
2023-04-23T12:19:01.138Z,1.26
2023-04-23T12:20:01.190Z,1.25
2023-04-23T12:21:01.253Z,1.27
2023-04-23T12:22:01.311Z,1.27
2023-04-23T12:23:01.343Z,1.26
2023-04-23T12:24:01.430Z,1.24
2023-04-23T12:25:01.473Z,1.27
2023-04-23T12:26:01.525Z,1.27
2023-04-23T12:27:01.592Z,1.26
2023-04-23T12:28:01.585Z,1.27
2023-04-23T12:29:01.632Z,1.26
2023-04-23T12:30:02.486Z,1.25
2023-04-23T12:31:01.787Z,1.26
2023-04-23T12:32:01.903Z,1.25
2023-04-23T12:33:01.878Z,1.27
2023-04-23T12:34:01.910Z,1.27
2023-04-23T12:35:01.951Z,1.26
2023-04-23T12:36:01.973Z,1.27
2023-04-23T12:37:02.039Z,1.27
2023-04-23T12:38:02.081Z,1.26
2023-04-23T12:39:02.121Z,1.26
2023-04-23T12:40:02.216Z,1.26
2023-04-23T12:41:02.241Z,1.25
2023-04-23T12:42:02.378Z,1.28
2023-04-23T12:43:02.324Z,1.27
2023-04-23T12:44:02.403Z,1.27
2023-04-23T12:45:02.466Z,1.26
2023-04-23T12:46:02.515Z,1.25
2023-04-23T12:47:02.582Z,1.26
2023-04-23T12:48:02.678Z,1.26
2023-04-23T12:49:02.647Z,1.25
2023-04-23T12:50:02.705Z,1.26
2023-04-23T12:51:02.778Z,1.27
2023-04-23T12:52:02.868Z,1.28
2023-04-23T12:53:02.888Z,1.27
2023-04-23T12:54:02.946Z,1.27
2023-04-23T12:55:02.978Z,1.25
2023-04-23T12:56:03.014Z,1.28
2023-04-23T12:57:03.068Z,1.29
2023-04-23T12:58:03.098Z,1.27
2023-04-23T12:59:03.246Z,1.25
2023-04-23T13:00:03.229Z,1.28
2023-04-23T13:01:10.333Z,1.24
2023-04-23T13:02:03.820Z,1.25
2023-04-23T13:03:03.352Z,1.25
2023-04-23T13:04:03.374Z,1.26
2023-04-23T13:05:03.258Z,1.27
2023-04-23T13:06:03.280Z,1.30
2023-04-23T13:07:03.226Z,1.29
2023-04-23T13:08:03.260Z,1.28
2023-04-23T13:09:03.229Z,1.26
2023-04-23T13:10:03.219Z,1.26
2023-04-23T13:11:03.232Z,1.27
2023-04-23T13:12:03.221Z,1.27
2023-04-23T13:13:03.222Z,1.25
2023-04-23T13:14:03.183Z,1.27
2023-04-23T13:15:03.182Z,1.26
2023-04-23T13:16:03.240Z,1.27
2023-04-23T13:17:03.169Z,1.28
2023-04-23T13:18:03.288Z,1.24
2023-04-23T13:19:03.185Z,1.26
2023-04-23T13:20:03.167Z,1.26
2023-04-23T13:21:03.127Z,1.26